Cherry Valley, Illinois
Current Conditions -  °F | °C
As of 9:54 AM on Friday 24 Oct 2014 (Local Time) from KRFD Reporting Station
Moderate Fog Moderate Fog  
Wind Chill: 50°   Ceiling: 200
Heat Index: 50°   Visibility: 0.5mi
Dew Point: 49°   Wind: 3mph
Humidity: 96%   Direction: 180°S
Pressure: 30.09"   Gusts: NA
Location:  42.23°N, 88.95°W
Report Text: KRFD 241454Z 18003KT 1/2SM R01/1800V2800FT FG OVC002 10/09 A3009 RMK AO2 TWR VIS 1 SLP190 T01000094 50003
Loading
Personal Weather Stations






























Interactive Weather Map
Tropical Storm Tracking
New forecast layout! Learn more

10-Day Weather Forecast

Advertisements
Track Severe Weather on mobile